Time;durP1;ratioP1;P1;durP2;ratioP2;P2;SDS_P1;SDS_P2;PMS_P1;PMS_P2;Temp;Humidity;BMP_temperature;BMP_pressure;BME280_temperature;BME280_humidity;BME280_pressure;Samples;Min_cycle;Max_cycle;Signal;HPM_P1;HPM_P2
2023/06/20 00:00:39;;;;;;;5.78;2.95;;;;;;;21.71;56.88;101283.44;5016863;28;97914;-27
2023/06/20 00:03:05;;;;;;;5.63;3.08;;;;;;;21.61;56.35;101282.66;5016602;28;99050;-27
2023/06/20 00:05:30;;;;;;;9.23;3.42;;;;;;;21.60;56.06;101268.00;5016708;28;96687;-29
2023/06/20 00:07:55;;;;;;;5.72;3.17;;;;;;;21.61;56.13;101263.34;5017033;28;96805;-27
2023/06/20 00:10:21;;;;;;;5.72;3.53;;;;;;;21.65;56.45;101273.03;5016353;28;107544;-27
2023/06/20 00:12:47;;;;;;;5.63;2.90;;;;;;;21.58;55.91;101267.28;5015069;28;101136;-27
2023/06/20 00:15:12;;;;;;;5.70;2.92;;;;;;;21.60;56.01;101273.50;5015317;28;96788;-27
2023/06/20 00:17:38;;;;;;;6.22;3.45;;;;;;;21.60;56.01;101262.47;5016550;28;101285;-27
2023/06/20 00:20:08;;;;;;;6.00;3.30;;;;;;;21.62;56.49;101278.88;5014930;28;99311;-27
2023/06/20 00:22:34;;;;;;;5.18;3.05;;;;;;;21.58;56.43;101260.91;5015402;28;100808;-27
2023/06/20 00:25:04;;;;;;;5.70;2.75;;;;;;;21.53;56.57;101260.50;5015120;28;96586;-27
2023/06/20 00:27:30;;;;;;;5.63;3.03;;;;;;;21.61;56.61;101266.97;5014998;28;96840;-27
2023/06/20 00:29:56;;;;;;;6.03;3.33;;;;;;;21.59;56.13;101269.00;5014188;28;101136;-27
2023/06/20 00:32:21;;;;;;;4.97;2.80;;;;;;;21.54;56.35;101257.59;5016370;28;97998;-27
2023/06/20 00:34:46;;;;;;;5.80;3.03;;;;;;;21.53;56.24;101258.63;5015665;28;96897;-28
2023/06/20 00:37:11;;;;;;;5.50;3.13;;;;;;;21.55;56.42;101259.34;5016812;28;96437;-27
2023/06/20 00:39:37;;;;;;;5.20;2.95;;;;;;;21.54;56.56;101260.34;5015813;28;109799;-29
2023/06/20 00:42:04;;;;;;;5.43;2.63;;;;;;;21.47;56.68;101253.72;5015704;28;114197;-28
2023/06/20 00:44:29;;;;;;;5.07;2.72;;;;;;;21.46;56.91;101252.00;5016219;28;96490;-27
2023/06/20 00:46:55;;;;;;;6.15;2.72;;;;;;;21.48;57.22;101255.47;5016686;28;96797;-26
2023/06/20 00:49:20;;;;;;;5.05;2.67;;;;;;;21.47;56.93;101258.38;5014614;28;100996;-27
2023/06/20 00:51:46;;;;;;;4.30;2.65;;;;;;;21.42;57.13;101251.41;5016087;28;98033;-27
2023/06/20 00:54:11;;;;;;;6.28;2.67;;;;;;;21.39;57.72;101259.13;5015746;28;96484;-27
2023/06/20 00:56:37;;;;;;;7.00;2.97;;;;;;;21.35;56.98;101253.03;5015745;28;96882;-27
2023/06/20 00:59:03;;;;;;;4.18;2.58;;;;;;;21.36;57.05;101246.50;5015857;28;98081;-27
2023/06/20 01:01:31;;;;;;;5.07;2.72;;;;;;;21.36;57.08;101248.41;5014297;28;101360;-28
2023/06/20 01:03:58;;;;;;;5.75;2.78;;;;;;;21.35;57.34;101233.75;5014685;28;96605;-27
2023/06/20 01:06:42;;;;;;;5.05;2.63;;;;;;;21.41;57.93;101238.69;5014633;28;96963;-27
2023/06/20 01:09:16;;;;;;;5.65;3.15;;;;;;;21.41;57.70;101246.94;5014293;28;101257;-27
2023/06/20 01:11:55;;;;;;;5.53;2.70;;;;;;;21.35;57.64;101239.25;5015802;28;98908;-27
2023/06/20 01:14:26;;;;;;;5.53;2.58;;;;;;;21.30;57.72;101241.63;5014528;28;97092;-27
2023/06/20 01:17:03;;;;;;;6.97;3.28;;;;;;;21.27;57.83;101239.19;5014476;28;96814;-27
2023/06/20 01:20:05;;;;;;;5.88;3.05;;;;;;;21.28;59.57;101248.31;5013525;28;100799;-27
2023/06/20 01:22:47;;;;;;;5.45;2.72;;;;;;;21.27;58.34;101252.97;5015432;28;99692;-27
2023/06/20 01:25:28;;;;;;;6.32;2.55;;;;;;;21.21;58.90;101248.94;5014428;28;96709;-27
2023/06/20 01:28:06;;;;;;;4.97;2.60;;;;;;;21.25;58.69;101237.59;5014217;28;96838;-29
2023/06/20 01:31:20;;;;;;;6.13;2.50;;;;;;;21.25;59.50;101238.47;5013780;28;100979;-27
2023/06/20 01:34:15;;;;;;;5.40;2.70;;;;;;;21.23;59.93;101240.50;5005111;28;99161;-29
2023/06/20 01:36:46;;;;;;;5.32;2.50;;;;;;;21.20;58.96;101238.91;5012456;28;96718;-27
2023/06/20 01:39:21;;;;;;;4.78;2.88;;;;;;;21.18;58.45;101221.66;5014548;28;96839;-27
2023/06/20 01:41:49;;;;;;;5.25;2.30;;;;;;;21.21;58.52;101223.25;5013727;28;100800;-27
2023/06/20 01:44:15;;;;;;;5.65;2.67;;;;;;;21.14;58.08;101217.50;5013566;28;99093;-27
2023/06/20 01:46:40;;;;;;;6.00;2.67;;;;;;;21.15;58.48;101207.34;5012588;28;97122;-27
2023/06/20 01:49:07;;;;;;;4.78;2.58;;;;;;;21.11;58.28;101217.81;5015318;28;96615;-27
2023/06/20 01:51:33;;;;;;;6.13;2.63;;;;;;;21.12;58.00;101215.94;5013505;28;100928;-27
2023/06/20 01:54:02;;;;;;;4.80;2.45;;;;;;;21.02;58.30;101207.69;5014822;28;104491;-27
2023/06/20 01:56:29;;;;;;;5.38;2.88;;;;;;;21.07;58.02;101213.66;5013959;28;96704;-27
2023/06/20 01:58:56;;;;;;;6.97;2.55;;;;;;;21.08;58.46;101214.50;5013754;28;97008;-26
2023/06/20 02:01:24;;;;;;;4.15;2.50;;;;;;;21.08;58.08;101218.13;5013085;28;101342;-27
2023/06/20 02:03:50;;;;;;;4.30;2.38;;;;;;;21.07;57.75;101212.75;5013801;28;100654;-27
2023/06/20 02:06:17;;;;;;;5.13;2.78;;;;;;;21.02;57.87;101202.19;5013629;28;96676;-27
2023/06/20 02:08:42;;;;;;;6.82;2.83;;;;;;;20.99;58.26;101197.00;5013736;28;96912;-28
2023/06/20 02:11:09;;;;;;;6.47;2.70;;;;;;;20.90;58.28;101195.16;5014629;28;97505;-27
2023/06/20 02:13:35;;;;;;;6.57;2.33;;;;;;;20.93;58.26;101209.50;5013345;28;100787;-27
2023/06/20 02:16:04;;;;;;;5.00;2.97;;;;;;;20.89;58.04;101196.19;5013215;28;96665;-27
2023/06/20 02:18:32;;;;;;;4.97;2.72;;;;;;;20.92;57.82;101205.00;5013442;28;96939;-26
2023/06/20 02:21:03;;;;;;;4.75;2.40;;;;;;;20.97;57.41;101201.78;5013141;28;101862;-27
2023/06/20 02:23:29;;;;;;;3.72;2.25;;;;;;;20.91;57.81;101207.94;5013245;28;101184;-27
2023/06/20 02:26:01;;;;;;;4.53;2.90;;;;;;;20.87;57.95;101206.50;5013325;28;96576;-27
2023/06/20 02:28:28;;;;;;;;;;;;;;;20.87;57.77;101207.34;5013998;28;96881;-27
2023/06/20 02:30:54;;;;;;;4.22;2.35;;;;;;;20.83;57.72;101205.91;5014349;28;98547;-27
2023/06/20 02:33:21;;;;;;;4.30;2.50;;;;;;;20.83;57.35;101200.41;5013401;28;100605;-27
2023/06/20 02:35:49;;;;;;;4.88;2.65;;;;;;;20.83;57.34;101200.41;5011839;28;96808;-27
2023/06/20 02:38:14;;;;;;;4.50;2.70;;;;;;;20.76;57.35;101189.16;5013201;28;96855;-27
2023/06/20 02:40:39;;;;;;;6.50;2.88;;;;;;;20.75;57.71;101181.03;5014325;28;101237;-27
2023/06/20 02:43:06;;;;;;;5.03;2.47;;;;;;;20.75;57.58;101183.81;5014244;28;97820;-27
2023/06/20 02:45:31;;;;;;;5.28;2.60;;;;;;;20.78;57.33;101178.88;5014788;28;96644;-27
2023/06/20 02:48:26;;;;;;;4.43;2.33;;;;;;;20.76;57.70;101174.50;5013204;28;96810;-27
2023/06/20 02:51:05;;;;;;;4.28;2.40;;;;;;;20.76;57.44;101172.66;5012761;28;100897;-27
2023/06/20 02:53:45;;;;;;;4.53;2.47;;;;;;;20.76;57.81;101167.13;5014150;28;99683;-27
2023/06/20 02:56:15;;;;;;;7.18;2.60;;;;;;;20.81;57.45;101174.06;5013063;28;96666;-27
2023/06/20 02:58:47;;;;;;;4.95;2.78;;;;;;;20.74;57.85;101171.06;5014357;28;96818;-27
2023/06/20 03:01:18;;;;;;;4.57;2.42;;;;;;;20.72;57.93;101165.69;5015903;28;100954;-27
2023/06/20 03:03:45;;;;;;;5.72;2.75;;;;;;;20.69;57.62;101166.00;5016404;28;101311;-27
2023/06/20 03:06:14;;;;;;;5.07;2.50;;;;;;;20.67;58.16;101161.69;5016522;28;96560;-27
2023/06/20 03:08:43;;;;;;;3.85;2.15;;;;;;;20.70;57.73;101164.13;5016407;28;96801;-26
2023/06/20 03:11:09;;;;;;;4.65;2.35;;;;;;;20.69;57.62;101174.28;5016127;28;100829;-27
2023/06/20 03:13:34;;;;;;;7.22;2.40;;;;;;;20.64;57.96;101164.72;5017691;28;97310;-27
2023/06/20 03:15:59;;;;;;;4.22;2.53;;;;;;;20.62;58.12;101170.41;5016121;28;102565;-27
2023/06/20 03:18:25;;;;;;;5.55;2.63;;;;;;;20.63;57.70;101166.63;5017981;28;96823;-27
2023/06/20 03:20:50;;;;;;;5.80;3.10;;;;;;;20.66;58.04;101182.81;5017286;28;99760;-28
2023/06/20 03:23:16;;;;;;;4.25;2.47;;;;;;;20.58;57.66;101167.06;5017380;28;97791;-27
2023/06/20 03:25:41;;;;;;;3.85;2.25;;;;;;;20.58;58.47;101169.81;5015976;28;96756;-27
2023/06/20 03:28:07;;;;;;;5.57;2.28;;;;;;;20.59;58.07;101162.41;5017713;28;96751;-28
2023/06/20 03:30:32;;;;;;;5.88;2.58;;;;;;;20.64;57.97;101165.63;5016955;28;98438;-27
2023/06/20 03:32:58;;;;;;;5.13;2.50;;;;;;;20.63;58.14;101166.63;5017017;28;97945;-27
2023/06/20 03:35:23;;;;;;;4.65;2.40;;;;;;;20.58;58.88;101167.06;5016766;28;96865;-28
2023/06/20 03:37:49;;;;;;;6.28;2.80;;;;;;;20.58;57.78;101163.47;5017966;28;96726;-27
2023/06/20 03:40:14;;;;;;;4.43;2.42;;;;;;;20.65;58.31;101169.22;5016589;28;99367;-27
2023/06/20 03:42:41;;;;;;;4.78;2.20;;;;;;;20.58;57.88;101167.06;5017410;28;97765;-27
2023/06/20 03:45:07;;;;;;;5.28;2.53;;;;;;;20.62;57.91;101173.16;5017504;28;96543;-26
2023/06/20 03:47:32;;;;;;;3.90;2.28;;;;;;;20.61;57.97;101167.78;5015701;28;96869;-27
2023/06/20 03:49:58;;;;;;;4.03;2.05;;;;;;;20.60;57.85;101172.44;5016610;28;98047;-27
2023/06/20 03:52:23;;;;;;;6.28;3.05;;;;;;;20.65;58.04;101174.72;5016893;28;97316;-27
2023/06/20 03:54:48;;;;;;;6.68;2.85;;;;;;;20.63;57.38;101177.63;5017263;28;96578;-28
2023/06/20 03:57:14;;;;;;;5.38;2.25;;;;;;;20.62;57.92;101172.25;5017335;28;97104;-27
2023/06/20 03:59:39;;;;;;;4.55;2.28;;;;;;;20.60;58.01;101177.94;5016540;28;99236;-29
2023/06/20 04:02:05;;;;;;;4.18;2.50;;;;;;;20.62;57.66;101181.41;5016640;28;97742;-27
2023/06/20 04:04:30;;;;;;;4.97;2.50;;;;;;;20.61;57.83;101185.16;5017182;28;96508;-27
2023/06/20 04:06:56;;;;;;;4.10;2.05;;;;;;;20.62;58.08;101188.78;5017326;28;96788;-27
2023/06/20 04:09:25;;;;;;;4.22;2.50;;;;;;;20.58;58.03;101178.06;5016117;28;97736;-27
2023/06/20 04:11:51;;;;;;;5.55;2.30;;;;;;;20.62;58.13;101175.91;5015104;28;100822;-28
2023/06/20 04:14:16;;;;;;;4.70;2.22;;;;;;;20.58;58.25;101172.56;5016479;28;96578;-27
2023/06/20 04:16:41;;;;;;;4.40;2.63;;;;;;;20.54;58.40;101159.22;5016534;28;96800;-27
2023/06/20 04:19:07;;;;;;;6.13;2.60;;;;;;;20.57;58.74;101173.59;5016582;28;97486;-27
2023/06/20 04:21:32;;;;;;;4.40;2.30;;;;;;;20.56;58.31;101174.59;5016307;28;99255;-27
2023/06/20 04:23:58;;;;;;;4.95;2.35;;;;;;;20.56;58.35;101171.84;5016506;28;96530;-28
2023/06/20 04:26:24;;;;;;;4.00;2.28;;;;;;;20.52;58.63;101181.41;5016867;28;96800;-27
2023/06/20 04:28:49;;;;;;;6.70;2.92;;;;;;;20.50;58.51;101166.94;5014776;28;100786;-26
2023/06/20 04:31:15;;;;;;;5.63;2.65;;;;;;;20.57;58.16;101164.50;5016356;28;97789;-27
2023/06/20 04:33:43;;;;;;;4.85;2.67;;;;;;;20.60;58.37;101166.94;5016628;28;96504;-27
2023/06/20 04:36:14;;;;;;;4.88;2.53;;;;;;;20.60;58.42;101152.31;5016069;28;96835;-27
2023/06/20 04:38:40;;;;;;;3.72;2.35;;;;;;;20.64;58.58;101150.97;5014324;28;100841;-28
2023/06/20 04:41:06;;;;;;;5.47;3.03;;;;;;;20.62;58.22;101151.13;5014733;28;101676;-27
2023/06/20 04:43:32;;;;;;;4.50;2.60;;;;;;;20.64;58.13;101150.97;5016592;28;96739;-27
2023/06/20 04:45:58;;;;;;;5.20;2.55;;;;;;;20.69;58.05;101157.75;5014885;28;96886;-27
2023/06/20 04:48:30;;;;;;;5.30;2.70;;;;;;;20.67;58.08;101156.19;5014527;28;100830;-27
2023/06/20 04:50:56;;;;;;;6.85;2.72;;;;;;;20.66;58.08;101155.28;5014415;28;101534;-27
2023/06/20 04:53:23;;;;;;;6.43;2.97;;;;;;;20.66;58.31;101162.69;5014735;28;96602;-27
2023/06/20 04:55:48;;;;;;;4.63;2.17;;;;;;;20.70;58.18;101156.72;5015184;28;96842;-27
2023/06/20 04:58:14;;;;;;;5.25;2.63;;;;;;;20.73;58.48;101156.41;5014135;28;100832;-27
2023/06/20 05:00:40;;;;;;;5.32;2.92;;;;;;;20.82;57.81;101153.78;5015537;28;98808;-27
2023/06/20 05:03:05;;;;;;;4.90;2.47;;;;;;;20.79;58.18;101149.44;5015851;28;96433;-27
2023/06/20 05:05:31;;;;;;;5.10;2.67;;;;;;;20.84;58.13;101152.59;5015915;28;96730;-28
2023/06/20 05:07:56;;;;;;;6.45;2.88;;;;;;;20.84;57.88;101158.09;5014404;28;100990;-27
2023/06/20 05:10:22;;;;;;;6.22;2.90;;;;;;;20.86;57.97;101150.56;5015903;28;97498;-27
2023/06/20 05:12:48;;;;;;;5.55;2.85;;;;;;;20.84;58.75;101152.59;5014438;28;96681;-27
2023/06/20 05:15:13;;;;;;;5.72;2.97;;;;;;;20.82;58.43;101148.25;5016060;28;96837;-27
2023/06/20 05:17:38;;;;;;;4.82;2.95;;;;;;;20.83;58.45;101150.00;5015885;28;97369;-28
2023/06/20 05:20:06;;;;;;;5.38;3.03;;;;;;;20.81;58.73;101155.66;5014766;28;117970;-27
2023/06/20 05:22:33;;;;;;;7.25;3.20;;;;;;;20.84;58.36;101149.84;5013620;28;96597;-27
2023/06/20 05:24:59;;;;;;;4.97;2.67;;;;;;;20.83;58.44;101142.59;5014422;28;96912;-27
2023/06/20 05:27:24;;;;;;;6.70;3.03;;;;;;;20.87;58.75;101155.03;5014999;28;97418;-26
2023/06/20 05:29:49;;;;;;;4.22;2.72;;;;;;;20.91;58.55;101150.97;5015149;28;97789;-27
2023/06/20 05:32:15;;;;;;;7.28;3.35;;;;;;;20.89;58.65;101130.09;5015849;28;96632;-27
2023/06/20 05:34:40;;;;;;;4.70;2.58;;;;;;;20.91;58.74;101125.31;5014976;28;96800;-27
2023/06/20 05:37:05;;;;;;;7.60;3.30;;;;;;;20.92;58.84;101133.41;5015170;28;109929;-28
2023/06/20 05:39:30;;;;;;;5.53;3.42;;;;;;;21.00;58.80;101124.38;5015278;28;97794;-27
2023/06/20 05:41:56;;;;;;;6.93;3.08;;;;;;;20.97;58.62;101116.41;5015653;28;96589;-29
2023/06/20 05:44:22;;;;;;;6.60;3.75;;;;;;;21.02;58.47;101115.94;5015839;28;96731;-27
2023/06/20 05:46:47;;;;;;;4.90;2.60;;;;;;;21.09;58.23;101136.34;5014931;28;97779;-27
2023/06/20 05:49:14;;;;;;;6.65;3.33;;;;;;;21.08;58.65;101129.97;5013652;28;100693;-27
2023/06/20 05:51:40;;;;;;;5.15;3.10;;;;;;;21.24;58.28;101131.13;5012917;28;96682;-27
2023/06/20 05:54:07;;;;;;;5.47;3.25;;;;;;;21.29;58.75;101143.44;5013781;28;97359;-27
2023/06/20 05:56:33;;;;;;;9.32;3.42;;;;;;;21.32;58.23;101143.13;5013510;28;100893;-27
2023/06/20 05:58:58;;;;;;;5.53;2.95;;;;;;;21.47;58.08;101153.63;5014998;28;97737;-27
2023/06/20 06:01:23;;;;;;;6.25;3.25;;;;;;;21.53;57.74;101145.59;5015092;28;96540;-27
2023/06/20 06:03:49;;;;;;;5.95;3.22;;;;;;;21.63;58.10;101156.53;5014139;28;99342;-27
2023/06/20 06:06:14;;;;;;;6.30;3.42;;;;;;;21.68;57.54;101154.16;5011306;28;112999;-28
2023/06/20 06:08:40;;;;;;;6.38;4.00;;;;;;;21.71;57.86;101144.69;5011649;28;98422;-30
2023/06/20 06:11:07;;;;;;;6.00;3.53;;;;;;;21.67;58.06;101132.28;5013779;28;96640;-30
2023/06/20 06:13:33;;;;;;;8.20;3.70;;;;;;;21.69;58.32;101131.09;5012666;28;96835;-27
2023/06/20 06:15:58;;;;;;;7.40;3.63;;;;;;;21.69;58.33;101138.47;5012592;28;98467;-29
2023/06/20 06:18:23;;;;;;;9.23;3.85;;;;;;;21.73;58.25;101134.38;5012013;28;98001;-27
2023/06/20 06:20:49;;;;;;;5.63;3.53;;;;;;;21.73;58.29;101128.88;5014496;28;96663;-27
2023/06/20 06:23:14;;;;;;;5.63;3.28;;;;;;;21.80;58.19;101133.56;5014091;28;97714;-29
2023/06/20 06:25:39;;;;;;;7.88;3.95;;;;;;;21.91;58.74;101135.22;5011259;28;114554;-31
2023/06/20 06:28:04;;;;;;;7.65;3.55;;;;;;;21.99;58.12;101139.91;5011650;28;97956;-30
2023/06/20 06:30:32;;;;;;;6.22;3.90;;;;;;;21.98;58.12;101125.25;5012012;28;97095;-31
2023/06/20 06:32:58;;;;;;;7.35;3.67;;;;;;;22.08;58.38;101124.28;5014417;28;96785;-27
2023/06/20 06:35:24;;;;;;;6.43;3.88;;;;;;;22.12;57.77;101121.03;5009965;28;101272;-28
2023/06/20 06:37:52;;;;;;;7.60;4.07;;;;;;;22.14;58.61;101123.63;5014019;28;97787;-27
2023/06/20 06:40:20;;;;;;;7.03;4.18;;;;;;;22.19;58.57;101121.22;5011426;28;97069;-27
2023/06/20 06:42:46;;;;;;;7.30;3.92;;;;;;;22.23;58.48;101100.59;5013104;28;96829;-27
2023/06/20 06:45:11;;;;;;;7.10;4.07;;;;;;;22.23;57.80;101101.47;5014403;28;97823;-27
2023/06/20 06:47:37;;;;;;;8.13;3.80;;;;;;;22.29;58.15;101105.47;5014352;28;97902;-26
2023/06/20 06:50:02;;;;;;;6.90;4.47;;;;;;;22.29;58.17;101108.22;5013387;28;96655;-27
2023/06/20 06:52:30;;;;;;;7.28;4.38;;;;;;;22.25;58.15;101101.31;5010710;28;97032;-32
2023/06/20 06:54:56;;;;;;;8.60;3.88;;;;;;;22.20;58.77;101100.91;5010939;28;98368;-35
2023/06/20 06:57:21;;;;;;;5.82;3.83;;;;;;;22.16;58.47;101094.84;5010674;28;97614;-31
2023/06/20 06:59:47;;;;;;;8.40;4.22;;;;;;;22.17;58.92;101096.59;5009856;28;97014;-32
2023/06/20 07:02:13;;;;;;;8.13;4.20;;;;;;;22.18;58.79;101094.69;5010491;28;97235;-30
2023/06/20 07:04:39;;;;;;;9.07;4.65;;;;;;;22.18;58.40;101081.75;5010165;28;97457;-27
2023/06/20 07:07:05;;;;;;;7.82;4.53;;;;;;;22.31;58.77;101084.09;5012055;28;97833;-29
2023/06/20 07:09:30;;;;;;;7.78;4.65;;;;;;;22.46;57.93;101070.53;5012023;28;96632;-29
2023/06/20 07:11:55;;;;;;;7.20;4.50;;;;;;;22.74;57.60;101079.41;5014066;28;96769;-26
2023/06/20 07:14:21;;;;;;;10.05;4.40;;;;;;;22.84;57.50;101069.09;5011731;28;99344;-26
2023/06/20 07:16:46;;;;;;;7.18;4.25;;;;;;;23.11;57.08;101079.00;5014025;28;97820;-28
2023/06/20 07:19:11;;;;;;;7.85;4.85;;;;;;;23.24;57.71;101077.63;5013898;28;96471;-27
2023/06/20 07:21:37;;;;;;;9.75;4.57;;;;;;;23.41;57.08;101082.13;5014620;28;96701;-26
2023/06/20 07:24:02;;;;;;;6.57;4.00;;;;;;;23.68;56.33;101088.34;5013407;28;111640;-27
2023/06/20 07:26:27;;;;;;;8.40;4.97;;;;;;;23.76;56.74;101090.25;5013775;28;99018;-26
2023/06/20 07:28:53;;;;;;;10.07;4.82;;;;;;;23.85;55.82;101087.31;5012988;28;103445;-26
2023/06/20 07:31:19;;;;;;;12.77;5.45;;;;;;;23.97;55.89;101086.94;5013355;28;96869;-27
2023/06/20 07:33:45;;;;;;;8.70;4.85;;;;;;;24.15;55.55;101082.91;5013311;28;99040;-26
2023/06/20 07:36:11;;;;;;;7.18;4.55;;;;;;;24.25;55.60;101082.69;5010520;28;101181;-27
2023/06/20 07:38:36;;;;;;;8.27;5.50;;;;;;;24.38;55.89;101102.41;5014005;28;96486;-27
2023/06/20 07:41:01;;;;;;;9.80;4.93;;;;;;;24.51;55.49;101104.63;5013698;28;96794;-27
2023/06/20 07:43:27;;;;;;;9.25;5.07;;;;;;;24.65;54.84;101100.22;5013567;28;98951;-26
2023/06/20 07:45:52;;;;;;;13.18;5.50;;;;;;;24.74;54.99;101103.81;5016622;28;108697;-27
2023/06/20 07:48:17;;;;;;;7.55;4.40;;;;;;;24.88;54.30;101096.63;5015383;28;107940;-32
2023/06/20 07:50:43;;;;;;;9.85;5.00;;;;;;;25.09;54.46;101096.84;5014844;28;96766;-32
2023/06/20 07:53:08;;;;;;;8.32;4.18;;;;;;;25.17;54.23;101105.16;5013820;28;102046;-27
2023/06/20 07:58:55;;;;;;;7.93;4.20;;;;;;;25.21;53.96;101087.06;5016134;28;96532;-26
2023/06/20 08:01:20;;;;;;;6.90;4.38;;;;;;;25.45;53.76;101100.94;5017328;28;96831;-26
2023/06/20 08:03:45;;;;;;;5.50;3.67;;;;;;;25.58;53.47;101092.88;5016460;28;98782;-27
2023/06/20 08:06:11;;;;;;;7.22;4.00;;;;;;;25.69;53.34;101100.72;5016909;28;97568;-27
2023/06/20 08:08:37;;;;;;;7.45;3.67;;;;;;;25.82;53.08;101081.53;5016813;28;96501;-27
2023/06/20 08:11:03;;;;;;;8.00;4.13;;;;;;;25.93;53.12;101094.09;5015879;28;96826;-27
2023/06/20 08:13:29;;;;;;;6.40;3.95;;;;;;;26.04;52.46;101087.22;5016593;28;97874;-26
2023/06/20 08:15:54;;;;;;;9.60;4.47;;;;;;;26.15;52.24;101077.56;5014955;28;99427;-27
2023/06/20 08:18:19;;;;;;;8.80;4.07;;;;;;;26.28;52.37;101078.63;5016382;28;96611;-27
2023/06/20 08:20:47;;;;;;;6.40;3.70;;;;;;;26.41;51.60;101079.84;5016803;28;97413;-27
2023/06/20 08:23:12;;;;;;;6.32;3.55;;;;;;;26.60;51.63;101082.09;5016314;28;97922;-28
2023/06/20 08:25:38;;;;;;;6.95;4.18;;;;;;;26.67;51.67;101085.81;5016421;28;97966;-27
2023/06/20 08:28:03;;;;;;;8.85;4.35;;;;;;;26.84;50.82;101080.88;5016387;28;99417;-27
2023/06/20 08:30:28;;;;;;;6.07;3.97;;;;;;;26.93;50.91;101087.16;5016573;28;96817;-26
2023/06/20 08:32:54;;;;;;;6.55;3.80;;;;;;;27.07;50.51;101074.28;5015934;28;102357;-27
2023/06/20 08:35:19;;;;;;;6.70;3.95;;;;;;;27.22;50.34;101088.16;5015546;28;105517;-27
2023/06/20 08:37:46;;;;;;;7.25;4.20;;;;;;;27.16;50.92;101083.34;5016339;28;96599;-27
2023/06/20 08:40:13;;;;;;;6.82;3.67;;;;;;;27.22;50.07;101074.22;5016194;28;96845;-26
2023/06/20 08:42:40;;;;;;;5.55;3.45;;;;;;;27.26;50.41;101075.56;5014250;28;101074;-26
2023/06/20 08:45:07;;;;;;;6.20;3.28;;;;;;;27.22;50.50;101072.34;5014573;28;100803;-27
2023/06/20 08:47:32;;;;;;;8.30;3.00;;;;;;;27.22;50.47;101071.44;5016062;28;96631;-27
2023/06/20 08:49:57;;;;;;;6.18;3.08;;;;;;;27.33;50.12;101069.00;5016590;28;96818;-26
2023/06/20 08:52:30;;;;;;;5.07;3.00;;;;;;;27.60;50.10;101069.28;5016024;28;97899;-27
2023/06/20 08:54:57;;;;;;;5.63;2.85;;;;;;;27.70;49.73;101066.13;5009793;28;100041;-26
2023/06/20 08:57:23;;;;;;;5.05;3.03;;;;;;;27.66;49.84;101062.88;5014728;28;96698;-26
2023/06/20 08:59:48;;;;;;;6.55;3.08;;;;;;;27.68;49.41;101060.75;5016605;28;96804;-26
2023/06/20 09:02:13;;;;;;;6.53;3.00;;;;;;;27.65;49.45;101057.50;5015434;28;99360;-26
2023/06/20 09:04:39;;;;;;;5.82;2.90;;;;;;;27.78;48.95;101054.84;5015921;28;97927;-26
2023/06/20 09:07:17;;;;;;;3.67;2.30;;;;;;;27.95;48.01;101056.25;5015356;28;96813;-27
2023/06/20 09:09:43;;;;;;;4.75;2.70;;;;;;;28.04;48.94;101050.53;5015817;28;96877;-26
2023/06/20 09:12:09;;;;;;;5.57;3.30;;;;;;;28.11;48.66;101054.22;5014306;28;100812;-26
2023/06/20 09:14:34;;;;;;;4.68;3.05;;;;;;;28.28;48.46;101055.59;5015418;28;97772;-26
2023/06/20 09:17:00;;;;;;;5.22;3.15;;;;;;;28.49;47.90;101057.47;5016252;28;96428;-27
2023/06/20 09:19:25;;;;;;;9.25;2.90;;;;;;;28.57;47.48;101056.41;5015879;28;96793;-26
2023/06/20 09:21:50;;;;;;;4.25;2.92;;;;;;;28.55;47.67;101051.03;5015568;28;97984;-27
2023/06/20 09:24:20;;;;;;;5.05;2.65;;;;;;;28.75;47.00;101059.50;5015935;28;97906;-26
2023/06/20 09:26:50;;;;;;;3.45;2.20;;;;;;;28.82;47.00;101062.31;5015604;28;96632;-26
2023/06/20 09:29:17;;;;;;;3.53;2.00;;;;;;;28.96;46.19;101069.66;5014058;28;96873;-27
2023/06/20 09:31:50;;;;;;;5.75;2.65;;;;;;;29.21;45.05;101061.56;5014873;28;98287;-26
2023/06/20 09:34:18;;;;;;;4.65;2.78;;;;;;;29.21;46.30;101067.13;5014539;28;99170;-27
2023/06/20 09:36:46;;;;;;;3.55;2.42;;;;;;;29.23;45.87;101066.94;5015607;28;96546;-28
2023/06/20 09:39:20;;;;;;;3.85;2.30;;;;;;;29.33;45.67;101072.09;5014091;28;96903;-27
2023/06/20 09:41:50;;;;;;;5.55;2.40;;;;;;;29.50;44.58;101059.44;5014961;28;99784;-27
2023/06/20 09:44:20;;;;;;;3.43;2.30;;;;;;;29.66;43.57;101071.25;5013671;28;100750;-27
2023/06/20 09:46:46;;;;;;;4.57;2.58;;;;;;;29.82;44.77;101063.34;5014085;28;96617;-27
2023/06/20 09:49:13;;;;;;;5.30;2.72;;;;;;;29.99;44.12;101060.09;5014377;28;96875;-26
2023/06/20 09:51:48;;;;;;;5.70;3.60;;;;;;;30.12;43.85;101056.41;5013714;28;101606;-26
2023/06/20 09:54:21;;;;;;;4.03;2.50;;;;;;;30.12;43.36;101070.38;5013471;28;100785;-27
2023/06/20 09:56:50;;;;;;;3.95;2.50;;;;;;;30.03;43.64;101067.81;5013461;28;96675;-26
2023/06/20 09:59:16;;;;;;;4.22;2.70;;;;;;;29.94;43.74;101060.75;5013672;28;96928;-27
2023/06/20 10:01:42;;;;;;;4.43;2.65;;;;;;;30.02;44.04;101051.25;5013307;28;100934;-27
2023/06/20 10:04:09;;;;;;;4.45;2.63;;;;;;;29.89;44.06;101045.69;5013468;28;100849;-27
2023/06/20 10:06:37;;;;;;;3.70;2.35;;;;;;;30.05;43.67;101054.47;5013311;28;96607;-27
2023/06/20 10:09:06;;;;;;;6.38;2.70;;;;;;;30.10;43.74;101047.38;5013514;28;96909;-26
2023/06/20 10:11:32;;;;;;;3.35;2.30;;;;;;;30.13;43.32;101049.72;5013368;28;100891;-26
2023/06/20 10:13:58;;;;;;;5.07;2.40;;;;;;;30.10;43.46;101037.03;5013689;28;101264;-27
2023/06/20 10:16:28;;;;;;;4.40;2.55;;;;;;;30.32;43.57;101040.47;5013550;28;96680;-27
2023/06/20 10:18:53;;;;;;;4.10;2.72;;;;;;;30.45;43.18;101020.84;5015043;28;96817;-27
2023/06/20 10:21:54;;;;;;;3.50;2.20;;;;;;;30.76;42.61;101029.50;5014101;28;98008;-26
2023/06/20 10:24:20;;;;;;;4.25;2.28;;;;;;;30.72;42.26;101031.03;5013248;28;101129;-27
2023/06/20 10:26:52;;;;;;;4.47;2.38;;;;;;;30.81;42.20;101024.94;5013455;28;96661;-26
2023/06/20 10:29:17;;;;;;;3.65;2.17;;;;;;;30.87;42.32;101026.91;5013166;28;96863;-27
2023/06/20 10:32:09;;;;;;;3.85;2.20;;;;;;;30.97;40.76;101017.16;5014176;28;98001;-27
2023/06/20 10:34:36;;;;;;;3.85;2.28;;;;;;;30.92;41.60;101022.56;5012341;28;99123;-27
2023/06/20 10:37:28;;;;;;;5.25;2.42;;;;;;;31.04;41.74;101015.19;5014756;28;96611;-28
2023/06/20 10:39:55;;;;;;;5.47;2.03;;;;;;;30.96;41.40;101012.63;5012846;28;96865;-27
2023/06/20 10:42:41;;;;;;;2.72;1.92;;;;;;;31.02;40.85;101007.00;5005798;28;100886;-27
2023/06/20 10:45:19;;;;;;;3.90;1.98;;;;;;;31.18;40.82;101013.09;4993030;28;101296;-27
2023/06/20 10:47:45;;;;;;;3.00;1.80;;;;;;;31.32;40.91;101004.41;4994231;28;96703;-26
2023/06/20 10:50:11;;;;;;;3.88;1.58;;;;;;;31.45;41.22;100999.81;4997945;28;96827;-27
2023/06/20 10:52:37;;;;;;;2.75;1.75;;;;;;;31.52;40.80;100993.03;5007461;28;100867;-27
2023/06/20 10:55:03;;;;;;;3.50;1.98;;;;;;;31.41;40.72;100976.97;5002953;28;97998;-28
2023/06/20 10:57:28;;;;;;;3.05;2.00;;;;;;;31.28;41.19;100977.09;5014370;28;96718;-27
2023/06/20 10:59:54;;;;;;;3.30;2.10;;;;;;;31.18;40.83;100974.81;5014466;28;96737;-27
2023/06/20 11:02:19;;;;;;;3.13;1.88;;;;;;;31.23;41.26;100974.97;5014239;28;97250;-26
2023/06/20 11:04:50;;;;;;;4.25;1.98;;;;;;;31.06;41.28;100969.09;5014441;28;98702;-26
2023/06/20 11:07:15;;;;;;;4.82;2.40;;;;;;;30.75;41.69;100967.13;5012972;28;96722;-26
2023/06/20 11:09:40;;;;;;;3.53;2.08;;;;;;;30.43;42.55;100958.69;5013192;28;96822;-26
2023/06/20 11:12:07;;;;;;;3.88;2.08;;;;;;;30.43;42.47;100963.44;5013443;28;99301;-27
2023/06/20 11:14:33;;;;;;;3.80;2.15;;;;;;;30.17;43.12;100961.59;5012400;28;100127;-26
2023/06/20 11:16:58;;;;;;;4.43;2.33;;;;;;;30.11;42.71;100965.28;5014262;28;96617;-27
2023/06/20 11:19:27;;;;;;;3.72;2.20;;;;;;;30.21;43.05;100962.88;5014977;28;96825;-27
2023/06/20 11:21:53;;;;;;;4.28;2.42;;;;;;;30.38;43.14;100966.03;5015834;28;101018;-26
2023/06/20 11:24:20;;;;;;;3.70;2.38;;;;;;;30.35;42.46;100958.97;5015953;28;100809;-26
2023/06/20 11:26:46;;;;;;;3.80;2.10;;;;;;;30.15;43.82;100963.75;5016282;28;96670;-27
2023/06/20 11:29:12;;;;;;;3.33;2.17;;;;;;;30.05;43.87;100962.25;5016449;28;96841;-27